Time;durP1;ratioP1;P1;durP2;ratioP2;P2;SDS_P1;SDS_P2;PMS_P1;PMS_P2;Temp;Humidity;BMP_temperature;BMP_pressure;BME280_temperature;BME280_humidity;BME280_pressure;Samples;Min_cycle;Max_cycle;Signal;HPM_P1;HPM_P2
2022/12/02 00:02:28;;;;;;;48.10;23.25;;;4.60;99.90;;;;;;6217058;22;20026;-86
2022/12/02 00:05:26;;;;;;;52.28;23.48;;;4.60;99.90;;;;;;6216495;22;20020;-89
2022/12/02 00:08:01;;;;;;;51.22;22.58;;;4.30;99.90;;;;;;6216106;22;20019;-87
2022/12/02 00:10:38;;;;;;;50.70;22.92;;;4.20;99.90;;;;;;6222930;22;20027;-89
2022/12/02 00:13:51;;;;;;;;;;;;;;;;;;;;;
2022/12/02 00:16:25;;;;;;;45.90;21.98;;;5.90;99.90;;;;;;6242673;22;20022;-88
2022/12/02 00:19:04;;;;;;;50.55;22.73;;;4.20;99.90;;;;;;6218565;22;20077;-88
2022/12/02 00:21:35;;;;;;;52.97;23.15;;;4.20;99.90;;;;;;6243517;22;20062;-87
2022/12/02 00:24:01;;;;;;;46.60;22.25;;;5.70;99.90;;;;;;6218093;22;20024;-89
2022/12/02 00:26:26;;;;;;;46.33;23.27;;;5.20;99.90;;;;;;6218364;22;20074;-88
2022/12/02 00:28:52;;;;;;;45.83;22.77;;;3.30;99.90;;;;;;6217801;22;20026;-87
2022/12/02 00:31:21;;;;;;;46.05;22.25;;;4.40;99.90;;;;;;6243369;22;20016;-87
2022/12/02 00:33:59;;;;;;;51.08;23.45;;;4.20;99.90;;;;;;6243955;22;20439;-88
2022/12/02 00:36:35;;;;;;;44.28;22.58;;;4.20;99.90;;;;;;6218433;22;20020;-88
2022/12/02 00:39:12;;;;;;;43.15;21.55;;;4.20;99.90;;;;;;6215408;22;20051;-88
2022/12/02 00:41:43;;;;;;;46.10;21.80;;;4.10;99.90;;;;;;6217000;22;20020;-87
2022/12/02 00:47:11;;;;;;;44.33;20.90;;;4.50;99.90;;;;;;6221668;22;20024;-86
2022/12/02 00:49:38;;;;;;;49.35;21.88;;;4.10;99.90;;;;;;6219389;22;20048;-86
2022/12/02 00:52:04;;;;;;;48.28;22.17;;;5.70;99.90;;;;;;6218524;22;20099;-86
2022/12/02 00:54:40;;;;;;;43.38;21.15;;;4.60;99.90;;;;;;6194163;22;20289;-87
2022/12/02 00:57:24;;;;;;;49.63;22.80;;;5.50;99.90;;;;;;6218424;22;20897;-87
2022/12/02 00:59:53;;;;;;;45.72;21.95;;;4.40;99.90;;;;;;6194796;22;20027;-86
2022/12/02 01:02:19;;;;;;;46.00;21.58;;;4.40;99.90;;;;;;6217330;22;20042;-88
2022/12/02 01:04:48;;;;;;;43.20;21.52;;;4.60;99.90;;;;;;6218311;22;20020;-88
2022/12/02 01:07:16;;;;;;;51.03;23.00;;;5.90;99.90;;;;;;6218200;22;20030;-87
2022/12/02 01:09:45;;;;;;;43.65;21.77;;;2.60;99.90;;;;;;6218903;22;20023;-87
2022/12/02 01:12:15;;;;;;;47.35;21.05;;;4.10;99.90;;;;;;6217415;22;20522;-87
2022/12/02 01:14:46;;;;;;;46.05;20.98;;;4.00;99.90;;;;;;6169279;22;20023;-87
2022/12/02 01:17:24;;;;;;;42.15;18.42;;;4.50;99.90;;;;;;6217700;22;20052;-87
2022/12/02 01:19:50;;;;;;;45.53;21.20;;;4.10;99.90;;;;;;6193687;22;20015;-87
2022/12/02 01:22:21;;;;;;;43.72;18.45;;;4.20;99.90;;;;;;6217465;22;20020;-88
2022/12/02 01:24:55;;;;;;;45.15;21.05;;;4.30;99.90;;;;;;6218722;22;20016;-87
2022/12/02 01:27:25;;;;;;;40.63;19.70;;;3.90;99.90;;;;;;6243292;22;20022;-88
2022/12/02 01:29:51;;;;;;;45.55;19.90;;;4.10;99.90;;;;;;6218783;22;20015;-86
2022/12/02 01:32:20;;;;;;;50.05;21.13;;;4.30;99.90;;;;;;6218201;22;20514;-89
2022/12/02 01:35:09;;;;;;;41.95;20.02;;;4.20;99.90;;;;;;6217312;22;20098;-88
2022/12/02 01:37:35;;;;;;;44.40;19.05;;;3.90;99.90;;;;;;6196162;22;20015;-87
2022/12/02 01:40:26;;;;;;;40.47;17.95;;;3.90;99.90;;;;;;6218125;22;20019;-87
2022/12/02 01:42:58;;;;;;;42.45;19.10;;;2.70;99.90;;;;;;6241445;22;20035;-89
2022/12/02 01:45:34;;;;;;;41.28;17.98;;;5.80;99.90;;;;;;6193152;22;20316;-88
2022/12/02 01:48:03;;;;;;;42.58;18.40;;;4.10;99.90;;;;;;6220478;22;20023;-89
2022/12/02 01:50:32;;;;;;;42.28;18.67;;;4.10;99.90;;;;;;6193658;22;20030;-87
2022/12/02 01:53:05;;;;;;;39.63;18.83;;;4.00;99.90;;;;;;6217896;22;20451;-87
2022/12/02 01:55:32;;;;;;;35.05;17.10;;;3.20;99.90;;;;;;6243533;22;20077;-89
2022/12/02 01:58:01;;;;;;;38.78;18.38;;;4.60;99.90;;;;;;6218918;22;20444;-87
2022/12/02 02:00:32;;;;;;;40.83;18.33;;;4.10;99.90;;;;;;6217295;22;20516;-86
2022/12/02 02:03:00;;;;;;;39.97;18.90;;;4.10;99.90;;;;;;6243388;22;20011;-87
2022/12/02 02:05:33;;;;;;;39.17;18.42;;;4.20;99.90;;;;;;6193075;22;20058;-85
2022/12/02 02:08:12;;;;;;;38.75;18.30;;;3.80;99.90;;;;;;6219881;22;20027;-87
2022/12/02 02:10:52;;;;;;;;;;;;;;;;;;;;;
2022/12/02 02:13:18;;;;;;;39.88;18.27;;;4.30;99.90;;;;;;6243548;22;20016;-87
2022/12/02 02:15:55;;;;;;;;;;;;;;;;;;;;;
2022/12/02 02:18:28;;;;;;;38.17;17.40;;;3.90;99.90;;;;;;6244158;22;20090;-88
2022/12/02 02:21:09;;;;;;;39.30;18.13;;;4.00;99.90;;;;;;6195153;22;20378;-88
2022/12/02 02:23:36;;;;;;;38.45;18.27;;;4.00;99.90;;;;;;6219855;22;20012;-87
2022/12/02 02:26:12;;;;;;;36.92;16.98;;;3.80;99.90;;;;;;6220013;22;20439;-86
2022/12/02 02:28:41;;;;;;;38.65;18.75;;;;;;;;;;6221276;22;20478;-86
2022/12/02 02:31:15;;;;;;;36.00;17.15;;;;;;;;;;6219584;22;20027;-86
2022/12/02 02:33:44;;;;;;;39.63;17.73;;;3.70;99.90;;;;;;6219354;22;20023;-87
2022/12/02 02:36:23;;;;;;;37.10;17.67;;;4.00;99.90;;;;;;6244652;22;20051;-88
2022/12/02 02:39:13;;;;;;;35.67;17.40;;;2.80;99.90;;;;;;6219692;22;20053;-87
2022/12/02 02:41:40;;;;;;;38.22;17.27;;;4.00;99.90;;;;;;6222982;22;20031;-87
2022/12/02 02:44:09;;;;;;;37.08;17.10;;;3.20;99.90;;;;;;6194002;22;20101;-89
2022/12/02 02:46:38;;;;;;;38.35;16.98;;;5.10;99.90;;;;;;6219622;22;20038;-86
2022/12/02 02:49:07;;;;;;;37.35;17.17;;;5.50;99.90;;;;;;6218371;22;20019;-87
2022/12/02 02:51:35;;;;;;;39.45;17.17;;;3.60;99.90;;;;;;6193982;22;20127;-86
2022/12/02 02:54:10;;;;;;;39.67;18.83;;;3.80;99.90;;;;;;6218805;22;20023;-87
2022/12/02 02:56:38;;;;;;;38.42;17.55;;;3.70;99.90;;;;;;6243688;22;20074;-87
2022/12/02 02:59:09;;;;;;;39.67;17.88;;;3.90;99.90;;;;;;6191332;22;20338;-87
2022/12/02 03:01:36;;;;;;;36.92;17.92;;;3.80;99.90;;;;;;6217134;22;20086;-87
2022/12/02 03:04:12;;;;;;;34.95;16.92;;;3.50;99.90;;;;;;6241055;22;20012;-88
2022/12/02 03:06:40;;;;;;;40.33;18.10;;;3.70;99.90;;;;;;6215990;22;20508;-86
2022/12/02 03:09:13;;;;;;;38.42;18.05;;;3.40;99.90;;;;;;6216738;22;20122;-88
2022/12/02 03:11:44;;;;;;;37.42;18.02;;;3.40;99.90;;;;;;6218550;22;20019;-86
2022/12/02 03:14:13;;;;;;;40.15;18.05;;;5.20;99.90;;;;;;6217622;22;20054;-88
2022/12/02 03:16:46;;;;;;;38.55;17.48;;;3.80;99.90;;;;;;6217262;22;20122;-87
2022/12/02 03:19:17;;;;;;;38.33;18.35;;;2.90;99.90;;;;;;6217189;22;20045;-87
2022/12/02 03:21:43;;;;;;;39.50;18.33;;;3.90;99.90;;;;;;6193966;22;20034;-87
2022/12/02 03:24:14;;;;;;;38.85;18.30;;;4.90;99.90;;;;;;6218086;22;20027;-87
2022/12/02 03:26:41;;;;;;;34.70;17.15;;;3.40;99.90;;;;;;6241953;22;20016;-87
2022/12/02 03:29:25;;;;;;;36.33;18.38;;;3.60;99.90;;;;;;6218838;22;20026;-86
2022/12/02 03:34:43;;;;;;;42.45;17.77;;;3.30;99.90;;;;;;6241743;22;20469;-86
2022/12/02 03:37:10;;;;;;;40.33;18.25;;;4.80;99.90;;;;;;6214971;22;20016;-88
2022/12/02 03:39:36;;;;;;;39.00;17.73;;;3.50;99.90;;;;;;6190655;22;20085;-87
2022/12/02 03:42:08;;;;;;;39.95;17.52;;;3.50;99.90;;;;;;6241096;22;20027;-88
2022/12/02 03:44:36;;;;;;;36.53;16.77;;;2.10;99.90;;;;;;6214951;22;20023;-88
2022/12/02 03:47:04;;;;;;;35.47;17.08;;;2.80;99.90;;;;;;6240106;22;20022;-86
2022/12/02 03:49:34;;;;;;;42.25;18.92;;;3.70;99.90;;;;;;6216963;22;20015;-86
2022/12/02 03:52:00;;;;;;;35.97;17.00;;;4.60;99.90;;;;;;6216933;22;20062;-86
2022/12/02 03:54:28;;;;;;;38.70;17.35;;;3.80;99.90;;;;;;6217915;22;20015;-86
2022/12/02 03:56:57;;;;;;;36.33;17.63;;;3.40;99.90;;;;;;6217856;22;20019;-86
2022/12/02 03:59:29;;;;;;;35.92;17.83;;;3.50;99.90;;;;;;6218426;22;20528;-86
2022/12/02 04:01:58;;;;;;;36.65;17.35;;;3.50;99.90;;;;;;6218253;22;20339;-86
2022/12/02 04:04:27;;;;;;;33.15;18.00;;;3.70;99.90;;;;;;6217452;22;20095;-87
2022/12/02 04:06:56;;;;;;;38.25;17.85;;;3.50;99.90;;;;;;6216830;22;20131;-86
2022/12/02 04:09:22;;;;;;;34.95;17.67;;;5.00;99.90;;;;;;6217827;22;20077;-86
2022/12/02 04:11:47;;;;;;;37.33;17.60;;;4.70;99.90;;;;;;6217453;22;20050;-87
2022/12/02 04:14:16;;;;;;;35.67;17.27;;;5.40;99.90;;;;;;6192740;22;20099;-87
2022/12/02 04:16:42;;;;;;;35.03;16.77;;;3.50;99.90;;;;;;6214937;22;20051;-86
2022/12/02 04:19:27;;;;;;;34.30;16.98;;;3.80;99.90;;;;;;6214239;22;20047;-87
2022/12/02 04:21:57;;;;;;;34.67;16.70;;;5.30;99.90;;;;;;6195287;22;20016;-87
2022/12/02 04:24:25;;;;;;;32.72;16.27;;;3.20;99.90;;;;;;6192339;22;20020;-88
2022/12/02 04:26:51;;;;;;;30.95;14.80;;;5.10;99.90;;;;;;6193464;22;20026;-86
2022/12/02 04:29:19;;;;;;;39.83;18.25;;;3.40;99.90;;;;;;6216497;22;20020;-87
2022/12/02 04:31:48;;;;;;;33.42;15.55;;;3.40;99.90;;;;;;6217756;22;20016;-87
2022/12/02 04:34:18;;;;;;;40.42;17.45;;;2.50;99.90;;;;;;6242845;22;20439;-87
2022/12/02 04:36:44;;;;;;;35.95;17.38;;;3.60;99.90;;;;;;6242501;22;20099;-87
2022/12/02 04:39:13;;;;;;;34.60;15.98;;;3.20;99.90;;;;;;6242489;22;20023;-87
2022/12/02 04:41:39;;;;;;;36.88;16.98;;;3.40;99.90;;;;;;6216921;22;20363;-87
2022/12/02 04:44:04;;;;;;;35.17;17.48;;;5.20;99.90;;;;;;6190850;22;20074;-87
2022/12/02 04:46:41;;;;;;;38.05;17.52;;;5.00;99.90;;;;;;6213802;22;20015;-88
2022/12/02 04:49:06;;;;;;;37.20;16.52;;;1.60;99.90;;;;;;6214362;22;20443;-86
2022/12/02 04:51:32;;;;;;;37.33;17.13;;;4.60;99.90;;;;;;6216220;22;20015;-86
2022/12/02 04:53:58;;;;;;;38.85;16.50;;;3.60;99.90;;;;;;6217345;22;20131;-86
2022/12/02 04:56:27;;;;;;;35.42;16.55;;;3.10;99.90;;;;;;6216666;22;20027;-86
2022/12/02 04:58:55;;;;;;;34.38;14.88;;;3.20;99.90;;;;;;6217192;22;20024;-86
2022/12/02 05:01:23;;;;;;;36.42;15.73;;;3.40;99.90;;;;;;6216594;22;20012;-86
2022/12/02 05:03:49;;;;;;;32.47;15.30;;;3.30;99.90;;;;;;6242082;22;20160;-87
2022/12/02 05:06:17;;;;;;;33.50;15.35;;;4.90;99.90;;;;;;6241122;22;20114;-87
2022/12/02 05:08:53;;;;;;;34.92;15.50;;;1.70;99.90;;;;;;6191424;22;20055;-85
2022/12/02 05:11:27;;;;;;;36.80;15.82;;;1.60;99.90;;;;;;6192191;22;20500;-89
2022/12/02 05:13:57;;;;;;;38.17;16.38;;;4.10;99.90;;;;;;6216969;22;20077;-86
2022/12/02 05:16:23;;;;;;;32.83;15.27;;;3.20;99.90;;;;;;6241634;22;20653;-86
2022/12/02 05:18:49;;;;;;;33.53;14.93;;;1.80;99.90;;;;;;6217350;22;20028;-87
2022/12/02 05:21:17;;;;;;;37.58;15.98;;;3.00;99.90;;;;;;6216581;22;20016;-86
2022/12/02 05:23:43;;;;;;;38.30;15.60;;;;;;;;;;6218596;22;20024;-86
2022/12/02 05:26:12;;;;;;;31.83;15.25;;;2.90;99.90;;;;;;6217959;22;20024;-86
2022/12/02 05:28:38;;;;;;;32.70;15.13;;;;;;;;;;6216671;22;20262;-86
2022/12/02 05:31:04;;;;;;;32.42;15.45;;;3.00;99.90;;;;;;6217264;22;20019;-86
2022/12/02 05:33:37;;;;;;;36.08;15.27;;;3.30;99.90;;;;;;6216594;22;20073;-86
2022/12/02 05:36:07;;;;;;;33.53;14.80;;;2.80;99.90;;;;;;6242034;22;20043;-86
2022/12/02 05:38:33;;;;;;;38.25;16.05;;;2.90;99.90;;;;;;6192964;22;20365;-86
2022/12/02 05:40:59;;;;;;;31.95;16.08;;;4.80;99.90;;;;;;6241756;22;20020;-85
2022/12/02 05:43:30;;;;;;;33.78;15.20;;;2.90;99.90;;;;;;6217133;22;20065;-86
2022/12/02 05:46:01;;;;;;;35.60;15.90;;;2.90;99.90;;;;;;6216673;22;20106;-86
2022/12/02 05:48:34;;;;;;;33.25;14.95;;;2.90;99.90;;;;;;6215686;22;20382;-86
2022/12/02 05:51:00;;;;;;;33.75;15.93;;;;;;;;;;6216360;22;20020;-87
2022/12/02 05:53:27;;;;;;;33.53;15.52;;;2.90;99.90;;;;;;6216243;22;20020;-85
2022/12/02 05:56:05;;;;;;;36.55;16.02;;;3.20;99.90;;;;;;6218406;22;20024;-85
2022/12/02 05:58:30;;;;;;;37.33;16.80;;;3.10;99.90;;;;;;6242419;22;20023;-86
2022/12/02 06:01:06;;;;;;;38.25;15.85;;;2.20;99.90;;;;;;6192661;22;20023;-86
2022/12/02 06:03:34;;;;;;;37.67;16.90;;;3.00;99.90;;;;;;6218774;22;20096;-86
2022/12/02 06:06:03;;;;;;;37.40;15.77;;;3.00;99.90;;;;;;6242227;22;20026;-85
2022/12/02 06:08:33;;;;;;;36.30;15.25;;;5.00;99.90;;;;;;6217965;22;20374;-88
2022/12/02 06:11:02;;;;;;;37.17;16.15;;;4.40;99.90;;;;;;6215002;22;20130;-86
2022/12/02 06:13:35;;;;;;;38.70;16.63;;;5.00;99.90;;;;;;6241519;22;20347;-85
2022/12/02 06:16:13;;;;;;;;;;;;;;;;;;;;;
2022/12/02 06:18:39;;;;;;;36.20;15.65;;;4.40;99.90;;;;;;6240496;22;20023;-86
2022/12/02 06:21:12;;;;;;;43.38;17.33;;;3.40;99.90;;;;;;6240474;22;20016;-86
2022/12/02 06:23:44;;;;;;;37.13;15.55;;;4.60;99.90;;;;;;6215845;22;20038;-87
2022/12/02 06:26:23;;;;;;;40.33;16.70;;;4.20;99.90;;;;;;6214790;22;20020;-87
2022/12/02 06:28:55;;;;;;;40.05;16.20;;;4.10;99.90;;;;;;6214484;22;20030;-86
2022/12/02 06:31:32;;;;;;;43.22;15.88;;;3.00;99.90;;;;;;6214682;22;20015;-87
2022/12/02 06:34:25;;;;;;;38.47;18.30;;;3.10;99.90;;;;;;6216597;22;20069;-86
2022/12/02 06:36:52;;;;;;;39.92;16.85;;;;;;;;;;6215456;22;20023;-87
2022/12/02 06:39:23;;;;;;;40.63;17.50;;;2.80;99.90;;;;;;6214376;22;20126;-85
2022/12/02 06:41:53;;;;;;;38.85;16.50;;;2.80;99.90;;;;;;6240602;22;20034;-86
2022/12/02 06:47:30;;;;;;;41.03;17.45;;;2.90;99.90;;;;;;6214913;22;20142;-84
2022/12/02 06:49:59;;;;;;;38.35;16.75;;;2.60;99.90;;;;;;6212496;22;20023;-86
2022/12/02 06:52:28;;;;;;;46.63;18.25;;;4.30;99.90;;;;;;6212513;22;20103;-87
2022/12/02 06:54:57;;;;;;;44.05;18.10;;;3.80;99.90;;;;;;6212568;22;20122;-85
2022/12/02 06:57:30;;;;;;;43.35;17.52;;;3.80;99.90;;;;;;6186945;22;20161;-86
2022/12/02 07:00:05;;;;;;;43.63;17.30;;;2.60;99.90;;;;;;6189071;22;20310;-90
2022/12/02 07:02:41;;;;;;;44.00;16.25;;;2.40;99.90;;;;;;6217763;22;20077;-87
2022/12/02 07:05:26;;;;;;;42.33;16.58;;;2.80;99.90;;;;;;6219492;22;20027;-87
2022/12/02 07:07:52;;;;;;;39.15;15.75;;;1.50;99.90;;;;;;6218456;22;20138;-85
2022/12/02 07:10:28;;;;;;;39.22;16.83;;;2.50;99.90;;;;;;6193739;22;20047;-86
2022/12/02 07:13:06;;;;;;;40.13;16.73;;;2.50;99.90;;;;;;6241912;22;20435;-87
2022/12/02 07:15:50;;;;;;;42.85;16.45;;;4.60;99.90;;;;;;6216474;22;20026;-89
2022/12/02 07:18:30;;;;;;;37.72;16.35;;;2.30;99.90;;;;;;6242875;22;20016;-88
2022/12/02 07:20:56;;;;;;;39.70;16.75;;;2.50;99.90;;;;;;6216912;22;20019;-89
2022/12/02 07:23:24;;;;;;;39.63;16.05;;;3.40;99.90;;;;;;6216103;22;20023;-87
2022/12/02 07:25:55;;;;;;;37.70;15.82;;;2.60;99.90;;;;;;6213564;22;20031;-85
2022/12/02 07:29:06;;;;;;;;;;;;;;;;;;;;;
2022/12/02 07:31:34;;;;;;;38.53;15.25;;;4.40;99.90;;;;;;6171725;22;20012;-87
2022/12/02 07:34:00;;;;;;;42.15;16.60;;;0.90;99.90;;;;;;6167399;22;20026;-86
2022/12/02 07:36:29;;;;;;;41.85;16.48;;;2.40;99.90;;;;;;6216385;22;20019;-87
2022/12/02 07:38:55;;;;;;;37.97;15.60;;;2.50;99.90;;;;;;6191966;22;20108;-86
2022/12/02 07:41:21;;;;;;;39.67;16.52;;;3.90;99.90;;;;;;6216890;22;20608;-88
2022/12/02 07:43:49;;;;;;;40.40;17.00;;;2.90;99.90;;;;;;6216321;22;20088;-87
2022/12/02 07:46:22;;;;;;;43.75;16.65;;;2.10;99.90;;;;;;6220773;22;20103;-88
2022/12/02 07:48:51;;;;;;;40.30;15.90;;;1.40;99.90;;;;;;6217807;22;20026;-89
2022/12/02 07:51:24;;;;;;;41.50;16.70;;;2.10;99.90;;;;;;6194334;22;20026;-89
2022/12/02 07:53:55;;;;;;;43.17;16.52;;;2.90;99.90;;;;;;6222381;22;20046;-88
2022/12/02 07:56:21;;;;;;;41.10;16.55;;;2.10;99.90;;;;;;6242750;22;20022;-90
2022/12/02 07:59:02;;;;;;;;;;;;;;;;;;;;;
2022/12/02 08:01:33;;;;;;;37.13;16.75;;;3.90;99.90;;;;;;6222777;22;20016;-89
2022/12/02 08:03:59;;;;;;;39.60;16.38;;;2.40;99.90;;;;;;6193597;22;20058;-86
2022/12/02 08:06:25;;;;;;;41.28;18.20;;;2.20;99.90;;;;;;6243790;22;20012;-86
2022/12/02 08:08:51;;;;;;;45.13;17.08;;;2.10;99.90;;;;;;6219460;22;20512;-88
2022/12/02 08:11:22;;;;;;;39.97;16.83;;;3.10;99.90;;;;;;6196960;22;20039;-88
2022/12/02 08:13:55;;;;;;;43.22;17.30;;;2.90;99.90;;;;;;6221062;22;20020;-88
2022/12/02 08:16:21;;;;;;;37.10;15.80;;;2.80;99.90;;;;;;6220863;22;20098;-88
2022/12/02 08:18:47;;;;;;;45.80;16.95;;;4.20;99.90;;;;;;6219248;22;20062;-88
2022/12/02 08:21:13;;;;;;;40.75;16.63;;;4.20;99.90;;;;;;6220593;22;20051;-86
2022/12/02 08:23:42;;;;;;;37.38;16.67;;;2.60;99.90;;;;;;6220478;22;20019;-87
2022/12/02 08:26:34;;;;;;;37.92;15.57;;;3.90;99.90;;;;;;6220724;22;20015;-90
2022/12/02 08:29:25;;;;;;;37.95;16.58;;;1.60;99.90;;;;;;6224951;22;20023;-90
2022/12/02 08:32:08;;;;;;;;;;;;;;;;;;;;;
2022/12/02 08:38:19;;;;;;;42.15;17.15;;;0.60;99.90;;;;;;6087631;23;20036;-88
2022/12/02 08:41:06;;;;;;;;;;;;;;;;;;;;;
2022/12/02 08:45:05;;;;;;;;;;;;;;;;;;;;;
2022/12/02 08:50:41;;;;;;;39.03;14.90;;;4.70;99.90;;;;;;6180155;22;20031;-91
2022/12/02 08:53:40;;;;;;;34.33;14.43;;;4.40;99.90;;;;;;6183154;22;20077;-92
2022/12/02 08:56:34;;;;;;;;;;;;;;;;;;;;;
2022/12/02 08:59:42;;;;;;;28.15;12.93;;;3.70;99.90;;;;;;6244859;22;20019;-92
2022/12/02 09:02:15;;;;;;;30.77;12.65;;;3.70;99.90;;;;;;6241997;22;20469;-87
2022/12/02 09:04:43;;;;;;;34.55;13.13;;;3.60;99.90;;;;;;6217851;22;20062;-87
2022/12/02 09:07:09;;;;;;;28.65;11.77;;;4.60;99.90;;;;;;6220841;22;20027;-88
2022/12/02 09:09:51;;;;;;;;;;;;;;;;;;;;;
2022/12/02 09:12:19;;;;;;;27.20;11.48;;;4.40;99.90;;;;;;6245174;22;20023;-87
2022/12/02 09:14:50;;;;;;;23.67;11.38;;;3.10;99.90;;;;;;6220028;22;20020;-87
2022/12/02 09:17:19;;;;;;;25.30;12.38;;;4.00;99.90;;;;;;6220558;22;20085;-87
2022/12/02 09:19:47;;;;;;;24.48;10.38;;;3.90;99.90;;;;;;6221597;22;20020;-88
2022/12/02 09:22:13;;;;;;;22.27;10.35;;;4.40;99.90;;;;;;6221578;22;20019;-87
2022/12/02 09:24:42;;;;;;;24.52;10.70;;;4.40;99.90;;;;;;6245536;22;20023;-88
2022/12/02 09:27:15;;;;;;;24.40;11.88;;;6.00;99.90;;;;;;6197858;22;20020;-87
2022/12/02 09:29:46;;;;;;;25.23;10.88;;;5.30;99.90;;;;;;6197664;22;20489;-89
2022/12/02 09:32:14;;;;;;;25.92;12.18;;;4.40;99.90;;;;;;6248169;22;20117;-87
2022/12/02 09:34:42;;;;;;;27.55;12.30;;;4.50;99.90;;;;;;6246634;22;20099;-88
2022/12/02 09:37:10;;;;;;;27.15;11.65;;;4.40;99.90;;;;;;6197139;22;20079;-86
2022/12/02 09:39:36;;;;;;;28.70;11.75;;;6.10;99.90;;;;;;6247077;22;20621;-87
2022/12/02 09:42:05;;;;;;;30.45;12.45;;;4.10;99.90;;;;;;6222053;22;20024;-87
2022/12/02 09:44:31;;;;;;;24.95;11.77;;;;;;;;;;6220268;22;20024;-86
2022/12/02 09:47:05;;;;;;;24.95;11.45;;;4.10;99.90;;;;;;6218101;22;20019;-86
2022/12/02 09:49:34;;;;;;;23.40;11.23;;;4.50;99.90;;;;;;6243296;22;20020;-86
2022/12/02 09:52:05;;;;;;;27.08;12.02;;;4.10;99.90;;;;;;6217876;22;20019;-87
2022/12/02 09:54:34;;;;;;;27.52;12.35;;;3.10;99.90;;;;;;6218617;22;20513;-86
2022/12/02 09:57:23;;;;;;;25.70;12.13;;;4.20;99.90;;;;;;6193965;22;20137;-90
2022/12/02 09:59:54;;;;;;;25.60;12.32;;;5.70;99.90;;;;;;6220566;22;20030;-88
2022/12/02 10:02:27;;;;;;;26.50;11.77;;;4.20;99.90;;;;;;6246004;22;20098;-87
2022/12/02 10:05:02;;;;;;;26.58;11.80;;;3.80;99.90;;;;;;6220888;22;20103;-87
2022/12/02 10:07:30;;;;;;;30.80;13.65;;;3.90;99.90;;;;;;6222529;22;20030;-90
2022/12/02 10:09:59;;;;;;;31.77;14.32;;;3.90;99.90;;;;;;6245018;22;20012;-84
2022/12/02 10:12:28;;;;;;;28.23;13.63;;;4.30;99.90;;;;;;6219669;22;20020;-91
2022/12/02 10:14:59;;;;;;;29.92;14.10;;;3.70;99.90;;;;;;6198733;22;20019;-87
2022/12/02 10:17:28;;;;;;;31.52;13.80;;;5.50;99.90;;;;;;6225164;22;20026;-91
2022/12/02 10:20:04;;;;;;;30.77;13.38;;;2.90;99.90;;;;;;6224124;22;20019;-89
2022/12/02 10:22:32;;;;;;;24.30;10.55;;;5.20;99.90;;;;;;6224795;22;20194;-89
2022/12/02 10:25:08;;;;;;;24.15;12.20;;;6.90;99.90;;;;;;6198250;22;20016;-88
2022/12/02 10:27:37;;;;;;;;;;;6.50;99.90;;;;;;6199449;22;20027;-89
2022/12/02 10:30:23;;;;;;;23.30;11.35;;;8.00;99.90;;;;;;6224026;22;19930;-89
2022/12/02 10:33:11;;;;;;;22.48;11.73;;;8.30;99.90;;;;;;6222952;22;20015;-89
2022/12/02 10:35:51;;;;;;;27.20;13.38;;;8.00;99.90;;;;;;6222805;22;20016;-87
2022/12/02 10:38:35;;;;;;;22.17;11.48;;;8.00;99.90;;;;;;6221734;22;20023;-87
2022/12/02 10:41:21;;;;;;;20.70;11.73;;;8.00;99.90;;;;;;6221221;22;20058;-88
2022/12/02 10:44:00;;;;;;;21.02;10.80;;;7.60;99.90;;;;;;6222168;22;20073;-88
2022/12/02 10:46:32;;;;;;;19.15;9.95;;;7.10;99.90;;;;;;6219327;22;20016;-90
2022/12/02 10:49:26;;;;;;;18.35;10.27;;;6.80;99.90;;;;;;6219873;22;20019;-89
2022/12/02 10:51:56;;;;;;;20.77;9.52;;;6.10;99.90;;;;;;6244828;22;20023;-87
2022/12/02 10:54:27;;;;;;;17.00;8.85;;;6.00;99.90;;;;;;6243139;22;20051;-87
2022/12/02 10:57:17;;;;;;;15.85;8.73;;;4.60;99.90;;;;;;6240851;22;20330;-89
2022/12/02 10:59:53;;;;;;;14.98;7.95;;;7.60;99.90;;;;;;6241836;22;20016;-88
2022/12/02 11:02:23;;;;;;;;;;;5.10;99.90;;;;;;6193993;22;20106;-86
2022/12/02 11:04:49;;;;;;;13.88;7.53;;;5.20;99.90;;;;;;6213737;22;20006;-89
2022/12/02 11:07:25;;;;;;;16.48;7.82;;;6.70;99.90;;;;;;6242042;22;20459;-88
2022/12/02 11:09:59;;;;;;;17.38;8.25;;;4.80;99.90;;;;;;6216396;22;20096;-89
2022/12/02 11:13:00;;;;;;;18.67;9.10;;;5.10;99.90;;;;;;6192989;22;20012;-87
2022/12/02 11:19:45;;;;;;;15.80;7.60;;;3.40;99.90;;;;;;6214936;22;20034;-90
2022/12/02 11:27:16;;;;;;;;;;;;;;;;;;;;;
2022/12/02 11:30:10;;;;;;;14.70;7.78;;;3.20;99.90;;;;;;6243218;22;20514;-90
2022/12/02 11:32:49;;;;;;;18.25;9.20;;;4.80;99.90;;;;;;6228930;22;20069;-89
2022/12/02 11:36:06;;;;;;;;;;;;;;;;;;;;;
2022/12/02 11:39:03;;;;;;;;;;;;;;;;;;;;;
2022/12/02 11:42:27;;;;;;;19.20;9.07;;;4.00;99.90;;;;;;6247746;22;20018;-88
2022/12/02 11:45:50;;;;;;;;;;;;;;;;;;;;;
2022/12/02 11:48:45;;;;;;;19.35;9.60;;;4.20;99.90;;;;;;6149105;22;20019;-89
2022/12/02 11:52:16;;;;;;;;;;;;;;;;;;;;;
2022/12/02 11:58:42;;;;;;;;;;;;;;;;;;;;;
2022/12/02 12:01:44;;;;;;;;;;;;;;;;;;;;;
2022/12/02 12:05:14;;;;;;;;;;;;;;;;;;;;;
2022/12/02 12:08:23;;;;;;;17.23;9.10;;;4.00;99.90;;;;;;6247334;22;20074;-89
2022/12/02 12:15:14;;;;;;;20.58;10.85;;;2.70;99.90;;;;;;6196161;22;20030;-90
2022/12/02 12:25:35;;;;;;;;;;;;;;;;;;;;;
2022/12/02 12:28:23;;;;;;;23.88;12.32;;;5.20;99.90;;;;;;6238174;22;20447;-88
2022/12/02 12:35:05;;;;;;;;;;;;;;;;;;;;;
2022/12/02 12:37:46;;;;;;;30.65;14.23;;;3.30;99.90;;;;;;6274019;22;20397;-90
2022/12/02 12:41:05;;;;;;;;;;;;;;;;;;;;;
2022/12/02 12:48:20;;;;;;;;;;;;;;;;;;;;;
2022/12/02 12:51:28;;;;;;;;;;;;;;;;;;;;;
2022/12/02 12:54:17;;;;;;;;;;;;;;;;;;;;;
2022/12/02 13:00:37;;;;;;;31.90;16.30;;;4.40;99.90;;;;;;6194668;22;20031;-89
2022/12/02 13:03:27;;;;;;;28.42;15.70;;;5.30;99.90;;;;;;6186977;22;20020;-89
2022/12/02 13:06:39;;;;;;;29.85;15.50;;;4.50;99.90;;;;;;6202888;22;20023;-89
2022/12/02 13:12:59;;;;;;;;;;;;;;;;;;;;;
2022/12/02 13:18:53;;;;;;;26.17;14.05;;;4.40;99.90;;;;;;6223888;22;20023;-90
2022/12/02 13:21:53;;;;;;;;;;;;;;;;;;;;;
2022/12/02 13:27:33;;;;;;;24.35;13.52;;;4.20;99.90;;;;;;6194128;22;20042;-90
2022/12/02 13:30:55;;;;;;;;;;;;;;;;;;;;;
2022/12/02 13:33:49;;;;;;;24.70;13.27;;;4.80;99.90;;;;;;6224307;22;20042;-89
2022/12/02 13:36:59;;;;;;;;;;;;;;;;;;;;;
2022/12/02 13:40:06;;;;;;;;;;;;;;;;;;;;;
2022/12/02 13:43:14;;;;;;;;;;;;;;;;;;;;;
2022/12/02 13:49:44;;;;;;;;;;;;;;;;;;;;;
2022/12/02 13:52:28;;;;;;;;;;;;;;;;;;;;;
2022/12/02 13:55:44;;;;;;;27.65;14.27;;;4.20;99.90;;;;;;6220663;23;20340;-90
2022/12/02 14:01:52;;;;;;;26.50;14.43;;;4.10;99.90;;;;;;6199643;23;20024;-90
2022/12/02 14:05:11;;;;;;;;;;;;;;;;;;;;;
2022/12/02 14:11:20;;;;;;;25.55;13.50;;;3.90;99.90;;;;;;6187110;23;20099;-90
2022/12/02 14:14:02;;;;;;;23.17;12.27;;;3.80;99.90;;;;;;6195779;23;20013;-89
2022/12/02 14:16:50;;;;;;;;;;;;;;;;;;;;;
2022/12/02 14:19:29;;;;;;;;;;;;;;;;;;;;;
2022/12/02 14:22:03;;;;;;;23.48;12.05;;;4.40;99.90;;;;;;6215228;23;20020;-89
2022/12/02 14:25:02;;;;;;;;;;;;;;;;;;;;;
2022/12/02 14:27:56;;;;;;;22.83;12.25;;;4.80;99.90;;;;;;6215357;23;20091;-89
2022/12/02 14:30:25;;;;;;;24.90;12.80;;;3.70;99.90;;;;;;6170241;23;20032;-89
2022/12/02 14:36:04;;;;;;;;;;;;;;;;;;;;;
2022/12/02 14:38:30;;;;;;;24.33;11.38;;;3.60;99.90;;;;;;6214774;23;20016;-84
2022/12/02 14:40:56;;;;;;;22.85;12.23;;;3.40;99.90;;;;;;6231279;22;20024;-89
2022/12/02 14:43:23;;;;;;;22.55;12.45;;;2.10;99.90;;;;;;6222394;22;20020;-88
2022/12/02 14:45:51;;;;;;;22.65;11.52;;;3.70;99.90;;;;;;6222699;22;20486;-85
2022/12/02 14:48:20;;;;;;;24.40;12.13;;;4.70;99.90;;;;;;6194397;22;20024;-87
2022/12/02 14:50:53;;;;;;;22.75;12.05;;;4.00;99.90;;;;;;6219495;22;20023;-83
2022/12/02 14:53:20;;;;;;;24.95;13.10;;;4.60;99.90;;;;;;6192496;22;20114;-87
2022/12/02 14:55:46;;;;;;;26.40;12.88;;;;;;;;;;6218022;22;20018;-90
2022/12/02 14:58:14;;;;;;;25.30;13.15;;;3.30;99.90;;;;;;6217633;22;20528;-86
2022/12/02 15:00:40;;;;;;;23.70;12.95;;;3.30;99.90;;;;;;6216513;22;20502;-86
2022/12/02 15:03:08;;;;;;;22.30;12.35;;;3.70;99.90;;;;;;6242476;22;20027;-86
2022/12/02 15:05:36;;;;;;;26.38;13.40;;;4.80;99.90;;;;;;6215966;22;20134;-86
2022/12/02 15:08:05;;;;;;;24.23;12.23;;;4.10;99.90;;;;;;6241884;22;20128;-84
2022/12/02 15:10:33;;;;;;;24.73;12.40;;;3.10;99.90;;;;;;6216226;22;20028;-87
2022/12/02 15:12:58;;;;;;;25.38;12.75;;;3.10;99.90;;;;;;6216416;22;20051;-84
2022/12/02 15:15:24;;;;;;;24.08;13.48;;;4.80;99.90;;;;;;6217102;22;20016;-85
2022/12/02 15:17:50;;;;;;;23.13;10.95;;;3.20;99.90;;;;;;6219029;22;20023;-87
2022/12/02 15:20:20;;;;;;;24.15;11.70;;;3.40;99.90;;;;;;6218318;22;20016;-87
2022/12/02 15:22:49;;;;;;;22.23;12.13;;;4.40;99.90;;;;;;6195492;22;20432;-88
2022/12/02 15:25:21;;;;;;;24.13;12.60;;;3.20;99.90;;;;;;6219038;22;20023;-91
2022/12/02 15:27:49;;;;;;;24.75;12.90;;;3.10;99.90;;;;;;6218353;22;20132;-83